Lengby, Minnesota
Current Conditions -  °F | °C
As of 8:15 AM on Monday 24 Nov 2014 (Local Time) from KFSE Reporting Station
Light Snow Light Snow  
Wind Chill: -12°   Ceiling: 1400
Heat Index:   Visibility: 4mi
Dew Point:   Wind: 17mph
Humidity: 85%   Direction: 330°NNW
Pressure: 29.6"   Gusts: NA
Location:  47.52°N, 95.64°W
Report Text: KFSE 241415Z AUTO 33015KT 4SM -SN OVC014 M14/M16 A2960 RMK AO2
Loading
Personal Weather Stations






























Interactive Weather Map New forecast layout! Learn more

10-Day Weather Forecast

Advertisements
Track Severe Weather on mobile